Rosedale, Maryland
Current Conditions -  °F | °C
As of 2:48 AM on Wednesday 26 Nov 2014 (Local Time) from KMTN Reporting Station
Clear Clear  
Wind Chill: 45°   Ceiling: Unl
Heat Index: 45°   Visibility: 10mi
Dew Point: 39°   Wind: 0mph
Humidity: 81%   Direction: NA
Pressure: 30.15"   Gusts: NA
Location:  39.34°N, 76.5°W
Report Text: KMTN 260748Z AUTO 00000KT 10SM CLR 07/04 A3015 RMK AO2
Loading
Personal Weather Stations






























Interactive Weather Map New forecast layout! Learn more

10-Day Weather Forecast

Advertisements
Track Severe Weather on mobile